Time;durP1;ratioP1;P1;durP2;ratioP2;P2;SDS_P1;SDS_P2;PMS_P1;PMS_P2;Temp;Humidity;BMP_temperature;BMP_pressure;BME280_temperature;BME280_humidity;BME280_pressure;Samples;Min_cycle;Max_cycle;Signal;HPM_P1;HPM_P2
2022/08/05 00:01:34;;;;;;;9.55;5.10;;;665.80;1587.20;;;;;;5005428;28;20476;-77
2022/08/05 00:04:00;;;;;;;7.90;5.25;;;665.70;1561.60;;;;;;5007033;28;20081;-80
2022/08/05 00:06:26;;;;;;;6.93;5.15;;;665.90;1561.60;;;;;;5005324;28;20022;-78
2022/08/05 00:08:51;;;;;;;9.32;4.90;;;665.90;1561.60;;;;;;5005597;28;20026;-79
2022/08/05 00:11:17;;;;;;;10.25;6.22;;;665.70;1587.20;;;;;;5006679;28;20058;-77
2022/08/05 00:13:43;;;;;;;8.95;5.82;;;665.70;1612.80;;;;;;5004731;28;20057;-79
2022/08/05 00:16:13;;;;;;;6.70;4.50;;;665.70;1612.80;;;;;;4988434;28;20033;-79
2022/08/05 00:18:41;;;;;;;10.25;5.60;;;665.70;1612.80;;;;;;5006880;28;20034;-78
2022/08/05 00:21:07;;;;;;;9.80;5.75;;;665.70;1612.80;;;;;;5003025;28;20057;-78
2022/08/05 00:23:33;;;;;;;7.03;4.85;;;665.60;1638.40;;;;;;4987987;28;20069;-79
2022/08/05 00:25:59;;;;;;;8.32;5.40;;;665.60;1638.40;;;;;;5006511;28;20015;-77
2022/08/05 00:28:24;;;;;;;7.13;5.10;;;640.90;1612.80;;;;;;5002116;28;20022;-80
2022/08/05 00:30:50;;;;;;;6.93;5.32;;;640.90;1612.80;;;;;;5005926;28;20052;-78
2022/08/05 00:33:16;;;;;;;7.30;5.20;;;640.90;1612.80;;;;;;4978108;28;20031;-79
2022/08/05 00:35:41;;;;;;;6.47;5.60;;;640.90;1612.80;;;;;;5004491;28;20474;-78
2022/08/05 00:38:07;;;;;;;11.85;5.03;;;640.90;1612.80;;;;;;5006179;28;20491;-78
2022/08/05 00:40:33;;;;;;;6.93;5.18;;;640.90;1638.40;;;;;;5004045;28;20408;-78
2022/08/05 00:43:01;;;;;;;10.93;5.50;;;640.90;1638.40;;;;;;5004168;28;20044;-77
2022/08/05 00:45:28;;;;;;;7.13;5.15;;;640.70;1664.00;;;;;;5002098;28;20072;-79
2022/08/05 00:47:54;;;;;;;9.75;5.70;;;640.60;1664.00;;;;;;4987513;28;20096;-79
2022/08/05 00:50:20;;;;;;;7.13;5.47;;;640.50;1664.00;;;;;;5006201;28;20078;-77
2022/08/05 00:52:45;;;;;;;11.70;5.00;;;640.60;1664.00;;;;;;5003409;28;20026;-78
2022/08/05 00:55:11;;;;;;;11.07;5.25;;;640.70;1664.00;;;;;;5004638;28;20100;-79
2022/08/05 00:57:37;;;;;;;6.80;5.28;;;640.70;1664.00;;;;;;5004685;28;20021;-81
2022/08/05 01:00:05;;;;;;;7.35;5.32;;;640.70;1664.00;;;;;;5006234;28;20102;-80
2022/08/05 01:02:31;;;;;;;6.30;4.78;;;640.70;1664.00;;;;;;5004466;28;20047;-81
2022/08/05 01:04:57;;;;;;;13.32;5.65;;;640.80;1664.00;;;;;;5004496;28;20379;-80
2022/08/05 01:07:22;;;;;;;9.40;5.78;;;640.90;1664.00;;;;;;5005676;28;20029;-79
2022/08/05 01:09:48;;;;;;;8.00;5.30;;;640.90;1664.00;;;;;;5004159;28;20086;-77
2022/08/05 01:12:17;;;;;;;11.55;5.65;;;640.90;1664.00;;;;;;5004506;28;20032;-81
2022/08/05 01:15:11;;;;;;;6.55;4.88;;;640.80;1664.00;;;;;;5005761;28;20018;-76
2022/08/05 01:17:42;;;;;;;9.20;5.45;;;640.70;1689.60;;;;;;5003813;28;20026;-78
2022/08/05 01:20:41;;;;;;;10.88;5.22;;;640.70;1715.20;;;;;;5001301;28;20023;-77
2022/08/05 01:23:12;;;;;;;12.57;5.70;;;640.70;1715.20;;;;;;5005549;28;20029;-81
2022/08/05 01:26:22;;;;;;;7.78;5.57;;;640.70;1740.80;;;;;;5004718;28;20022;-78
2022/08/05 01:28:55;;;;;;;8.68;5.80;;;640.70;1766.40;;;;;;4959854;28;20093;-79
2022/08/05 01:31:49;;;;;;;11.05;5.28;;;640.70;1792.00;;;;;;4962590;28;20031;-77
2022/08/05 01:34:37;;;;;;;13.63;6.35;;;640.70;1792.00;;;;;;4947340;28;20061;-82
2022/08/05 01:37:28;;;;;;;7.05;5.47;;;640.50;1817.60;;;;;;4964349;28;20031;-79
2022/08/05 01:39:55;;;;;;;9.98;6.10;;;640.50;1868.80;;;;;;4906224;29;20628;-79
2022/08/05 01:42:25;;;;;;;10.88;5.15;;;640.60;1868.80;;;;;;4906301;29;20048;-76
2022/08/05 01:44:54;;;;;;;8.65;5.80;;;640.50;1868.80;;;;;;4905467;29;20037;-77
2022/08/05 01:47:21;;;;;;;8.07;5.40;;;640.50;1868.80;;;;;;4905419;29;20146;-79
2022/08/05 01:49:49;;;;;;;10.80;5.80;;;640.30;1868.80;;;;;;4907012;29;20154;-76
2022/08/05 01:52:17;;;;;;;11.88;6.35;;;640.20;1868.80;;;;;;4905410;29;20071;-76
2022/08/05 01:54:51;;;;;;;8.20;5.55;;;640.10;1868.80;;;;;;4907200;29;20032;-80
2022/08/05 01:57:28;;;;;;;9.45;5.40;;;640.00;1894.40;;;;;;4904154;29;20055;-79
2022/08/05 01:59:58;;;;;;;8.68;5.53;;;615.30;1920.00;;;;;;4905599;29;20025;-78
2022/08/05 02:02:25;;;;;;;12.60;5.45;;;640.00;1894.40;;;;;;4904672;29;20120;-79
2022/08/05 02:04:53;;;;;;;7.80;5.65;;;640.00;1894.40;;;;;;4932319;29;20122;-77
2022/08/05 02:07:20;;;;;;;10.93;5.05;;;640.00;1894.40;;;;;;4943356;29;20497;-80
2022/08/05 02:09:46;;;;;;;9.50;5.40;;;640.20;1868.80;;;;;;4928488;28;20035;-79
2022/08/05 02:12:24;;;;;;;9.18;5.53;;;640.00;1894.40;;;;;;4926900;29;20565;-79
2022/08/05 02:15:04;;;;;;;12.95;5.55;;;640.00;1894.40;;;;;;4940154;29;20035;-77
2022/08/05 02:17:40;;;;;;;7.68;4.75;;;615.30;1920.00;;;;;;4986586;28;20039;-80
2022/08/05 02:20:10;;;;;;;7.85;5.90;;;615.10;1920.00;;;;;;5002599;28;20069;-80
2022/08/05 02:22:43;;;;;;;9.38;5.68;;;615.10;1920.00;;;;;;5004020;28;20042;-80
2022/08/05 02:25:18;;;;;;;12.43;5.88;;;615.00;1945.60;;;;;;5004663;28;20013;-81
2022/08/05 02:27:47;;;;;;;6.75;5.13;;;615.10;1920.00;;;;;;4986605;28;20029;-81
2022/08/05 02:30:17;;;;;;;9.15;5.45;;;615.10;1920.00;;;;;;5003032;28;20041;-79
2022/08/05 02:32:48;;;;;;;9.60;6.20;;;615.10;1920.00;;;;;;5004144;28;20503;-77
2022/08/05 02:35:18;;;;;;;7.90;5.05;;;615.30;1920.00;;;;;;5001605;28;20018;-79
2022/08/05 02:37:45;;;;;;;10.35;6.30;;;615.30;1920.00;;;;;;4984972;28;20033;-77
2022/08/05 02:40:12;;;;;;;8.18;5.28;;;615.10;1920.00;;;;;;5004416;28;20025;-78
2022/08/05 02:42:38;;;;;;;10.82;5.80;;;615.00;1971.20;;;;;;4987916;28;20046;-77
2022/08/05 02:45:06;;;;;;;11.80;5.80;;;615.00;1945.60;;;;;;5003983;28;20034;-77
2022/08/05 02:47:39;;;;;;;7.35;5.22;;;614.90;1971.20;;;;;;5005303;28;20533;-78
2022/08/05 02:50:07;;;;;;;9.45;5.68;;;614.80;1996.80;;;;;;4987388;28;20125;-77
2022/08/05 02:52:34;;;;;;;25.50;6.85;;;614.80;1996.80;;;;;;5004657;28;20375;-77
2022/08/05 02:55:01;;;;;;;13.32;6.32;;;614.70;2022.40;;;;;;4992448;28;20531;-79
2022/08/05 02:57:27;;;;;;;10.80;6.10;;;614.60;2022.40;;;;;;4974885;28;20042;-79
2022/08/05 02:59:54;;;;;;;8.00;5.47;;;614.50;2022.40;;;;;;4993007;28;20125;-77
2022/08/05 03:02:24;;;;;;;14.68;5.70;;;614.50;2022.40;;;;;;4975017;28;20039;-78
2022/08/05 03:04:52;;;;;;;29.63;8.80;;;614.40;2048.00;;;;;;4978133;28;20034;-77
2022/08/05 03:07:18;;;;;;;19.48;6.53;;;614.40;2048.00;;;;;;4996532;28;20029;-76
2022/08/05 03:09:45;;;;;;;21.90;5.63;;;614.50;2048.00;;;;;;4979295;28;20024;-78
2022/08/05 03:12:35;;;;;;;19.30;7.15;;;614.60;2022.40;;;;;;4978745;28;20471;-78
2022/08/05 03:15:02;;;;;;;16.58;6.43;;;614.40;2048.00;;;;;;4996286;28;20387;-78
2022/08/05 03:17:28;;;;;;;10.57;6.40;;;589.70;2073.60;;;;;;4996621;28;20703;-77
2022/08/05 03:19:53;;;;;;;11.27;6.22;;;589.70;2073.60;;;;;;4997077;28;20037;-80
2022/08/05 03:22:19;;;;;;;13.18;6.40;;;589.60;2073.60;;;;;;4979711;28;20081;-77
2022/08/05 03:24:47;;;;;;;22.48;6.75;;;589.50;2099.20;;;;;;4997511;28;20026;-79
2022/08/05 03:27:14;;;;;;;11.95;6.68;;;589.50;2073.60;;;;;;4997437;28;20476;-79
2022/08/05 03:29:39;;;;;;;10.68;6.53;;;589.60;2073.60;;;;;;4997288;28;20029;-77
2022/08/05 03:32:09;;;;;;;15.13;6.75;;;589.40;2099.20;;;;;;4997447;28;20026;-78
2022/08/05 03:34:36;;;;;;;16.70;6.30;;;589.40;2099.20;;;;;;4980951;28;20026;-79
2022/08/05 03:37:04;;;;;;;10.82;6.38;;;589.30;2099.20;;;;;;5009758;28;20033;-80
2022/08/05 03:39:29;;;;;;;12.38;7.55;;;589.30;2124.80;;;;;;4979492;28;20046;-77
2022/08/05 03:41:56;;;;;;;12.50;6.43;;;589.50;2099.20;;;;;;4996647;28;20045;-78
2022/08/05 03:44:22;;;;;;;9.30;6.65;;;589.40;2099.20;;;;;;4996826;28;20555;-77
2022/08/05 03:46:48;;;;;;;18.48;6.93;;;589.30;2124.80;;;;;;5001498;28;20188;-79
2022/08/05 03:49:13;;;;;;;11.50;7.07;;;589.20;2124.80;;;;;;5005472;28;20132;-80
2022/08/05 03:51:49;;;;;;;12.88;6.75;;;589.40;2099.20;;;;;;5006259;28;20467;-77
2022/08/05 03:54:34;;;;;;;11.93;6.15;;;589.40;2099.20;;;;;;5007491;28;20028;-79
2022/08/05 03:57:02;;;;;;;12.05;6.47;;;589.20;2124.80;;;;;;4990278;28;20472;-79
2022/08/05 03:59:38;;;;;;;11.05;6.60;;;589.20;2124.80;;;;;;4997044;28;20117;-77
2022/08/05 04:02:04;;;;;;;;;;;589.10;2124.80;;;;;;4997033;28;20058;-78
2022/08/05 04:04:32;;;;;;;15.50;6.93;;;589.20;2099.20;;;;;;4996787;28;19933;-80
2022/08/05 04:07:00;;;;;;;19.90;7.13;;;589.30;2099.20;;;;;;4996895;28;20037;-77
2022/08/05 04:09:28;;;;;;;15.52;7.32;;;589.20;2099.20;;;;;;4996891;28;20061;-81
2022/08/05 04:11:54;;;;;;;12.75;7.68;;;589.20;2099.20;;;;;;4996726;28;20045;-81
2022/08/05 04:14:21;;;;;;;12.57;6.75;;;589.20;2099.20;;;;;;4996382;28;20027;-76
2022/08/05 04:16:47;;;;;;;10.45;7.43;;;589.30;2099.20;;;;;;4979388;28;20100;-77
2022/08/05 04:19:13;;;;;;;12.68;7.25;;;589.30;2099.20;;;;;;4999020;28;20041;-76
2022/08/05 04:21:40;;;;;;;11.18;6.78;;;589.20;2124.80;;;;;;4989263;28;20014;-80
2022/08/05 04:24:06;;;;;;;17.83;7.28;;;589.30;2150.40;;;;;;4988150;28;20137;-78
2022/08/05 04:26:32;;;;;;;15.75;8.20;;;589.30;2124.80;;;;;;5005117;28;20022;-81
2022/08/05 04:28:59;;;;;;;17.48;8.57;;;589.50;2124.80;;;;;;5004945;28;20487;-79
2022/08/05 04:31:25;;;;;;;20.60;8.98;;;589.50;2150.40;;;;;;5009525;28;20014;-78
2022/08/05 04:33:51;;;;;;;24.45;8.68;;;589.50;2150.40;;;;;;4996872;28;20080;-78
2022/08/05 04:36:16;;;;;;;20.10;6.82;;;589.60;2150.40;;;;;;5009606;28;20050;-81
2022/08/05 04:38:43;;;;;;;16.73;7.28;;;614.40;2099.20;;;;;;4996304;28;20018;-77
2022/08/05 04:41:09;;;;;;;18.13;6.80;;;614.40;2099.20;;;;;;4995907;28;20500;-77
2022/08/05 04:43:35;;;;;;;14.48;7.38;;;614.50;2099.20;;;;;;4995892;28;20412;-78
2022/08/05 04:46:01;;;;;;;23.00;8.20;;;614.60;2099.20;;;;;;4978557;28;20034;-81
2022/08/05 04:48:27;;;;;;;24.52;7.53;;;614.70;2073.60;;;;;;5003002;28;20069;-82
2022/08/05 04:50:53;;;;;;;18.35;7.32;;;614.70;2099.20;;;;;;5005332;28;20019;-81
2022/08/05 04:53:19;;;;;;;11.52;7.28;;;614.80;2073.60;;;;;;4995957;28;20455;-76
2022/08/05 04:55:45;;;;;;;18.27;7.13;;;614.80;2073.60;;;;;;4995851;28;20022;-79
2022/08/05 04:58:13;;;;;;;12.75;7.57;;;614.90;2022.40;;;;;;4995767;28;20042;-81
2022/08/05 05:00:39;;;;;;;10.40;6.75;;;615.00;2022.40;;;;;;4995784;28;20018;-77
2022/08/05 05:03:06;;;;;;;11.15;7.60;;;615.20;2022.40;;;;;;4995655;28;20046;-81
2022/08/05 05:05:33;;;;;;;16.60;8.13;;;615.20;1996.80;;;;;;5006030;28;20018;-77
2022/08/05 05:08:06;;;;;;;13.18;8.27;;;615.30;1996.80;;;;;;5005355;28;20054;-77
2022/08/05 05:10:43;;;;;;;13.65;7.22;;;640.00;1996.80;;;;;;5001692;28;20026;-78
2022/08/05 05:13:11;;;;;;;11.02;7.63;;;640.10;1971.20;;;;;;4977610;28;20038;-77
2022/08/05 05:15:37;;;;;;;9.43;6.32;;;640.20;1945.60;;;;;;5003323;28;20026;-80
2022/08/05 05:18:04;;;;;;;9.98;7.65;;;640.30;1920.00;;;;;;4989441;28;20026;-80
2022/08/05 05:20:31;;;;;;;17.98;9.75;;;640.40;1920.00;;;;;;5006103;28;20026;-77
2022/08/05 05:22:57;;;;;;;12.75;8.27;;;640.40;1868.80;;;;;;5004174;28;20033;-81
2022/08/05 05:25:23;;;;;;;11.80;9.55;;;640.50;1894.40;;;;;;5004646;28;20029;-78
2022/08/05 05:27:51;;;;;;;17.70;10.88;;;640.60;1920.00;;;;;;5005069;28;20169;-77
2022/08/05 05:30:18;;;;;;;15.57;10.55;;;640.70;1868.80;;;;;;4998080;28;20053;-76
2022/08/05 05:32:43;;;;;;;12.18;10.55;;;640.80;1843.20;;;;;;4995213;28;20026;-83
2022/08/05 05:35:09;;;;;;;17.35;9.88;;;665.60;1868.80;;;;;;5006377;28;20483;-84
2022/08/05 05:37:56;;;;;;;15.65;9.85;;;665.80;1843.20;;;;;;4998002;28;20093;-80
2022/08/05 05:40:23;;;;;;;14.25;8.23;;;665.90;1817.60;;;;;;4995180;28;20043;-83
2022/08/05 05:42:50;;;;;;;27.50;9.35;;;666.00;1817.60;;;;;;4985532;28;20400;-77
2022/08/05 05:45:16;;;;;;;12.02;8.27;;;666.10;1817.60;;;;;;5007718;28;20113;-76
2022/08/05 05:47:42;;;;;;;13.27;7.03;;;666.30;1792.00;;;;;;4996302;28;20018;-76
2022/08/05 05:50:10;;;;;;;11.57;7.45;;;666.30;1766.40;;;;;;4997065;28;20030;-81
2022/08/05 05:52:36;;;;;;;12.05;7.13;;;666.50;1766.40;;;;;;5006195;28;20030;-78
2022/08/05 05:55:04;;;;;;;10.18;7.00;;;666.50;1792.00;;;;;;4994630;28;20484;-83
2022/08/05 05:57:30;;;;;;;18.33;7.22;;;691.20;1740.80;;;;;;5001440;28;20037;-74
2022/08/05 05:59:55;;;;;;;8.93;6.15;;;691.30;1689.60;;;;;;4995937;28;20022;-77
2022/08/05 06:02:21;;;;;;;9.38;5.93;;;691.50;1664.00;;;;;;4994754;28;20027;-77
2022/08/05 06:04:47;;;;;;;10.98;6.28;;;691.70;1664.00;;;;;;4994801;28;20018;-85
2022/08/05 06:07:13;;;;;;;24.27;6.95;;;691.70;1638.40;;;;;;4994847;28;20019;-87
2022/08/05 06:09:39;;;;;;;18.58;6.43;;;691.90;1638.40;;;;;;4994621;28;20038;-84
2022/08/05 06:12:05;;;;;;;10.30;5.88;;;691.90;1638.40;;;;;;4994587;28;20105;-84
2022/08/05 06:14:32;;;;;;;8.98;6.32;;;692.10;1638.40;;;;;;4994627;28;20057;-76
2022/08/05 06:16:58;;;;;;;7.93;5.88;;;692.00;1612.80;;;;;;4977427;28;20488;-81
2022/08/05 06:19:25;;;;;;;7.32;4.97;;;716.90;1612.80;;;;;;4994624;28;20075;-77
2022/08/05 06:21:51;;;;;;;10.30;4.95;;;717.00;1561.60;;;;;;4994502;28;20060;-82
2022/08/05 06:24:18;;;;;;;8.68;6.07;;;717.10;1536.00;;;;;;4994837;28;20101;-82
2022/08/05 06:26:44;;;;;;;9.48;6.10;;;717.30;1510.40;;;;;;4994697;28;20019;-79
2022/08/05 06:29:09;;;;;;;8.93;5.97;;;717.40;1484.80;;;;;;4994322;28;20123;-81
2022/08/05 06:31:36;;;;;;;7.32;5.75;;;717.50;1459.20;;;;;;4994483;28;20138;-75
2022/08/05 06:34:02;;;;;;;8.48;5.72;;;717.70;1459.20;;;;;;5009763;28;20033;-84
2022/08/05 06:36:28;;;;;;;11.15;6.05;;;742.40;1484.80;;;;;;5005723;28;20109;-84
2022/08/05 06:38:54;;;;;;;11.20;5.60;;;742.50;1484.80;;;;;;4994211;28;20054;-75
2022/08/05 06:41:20;;;;;;;9.85;5.88;;;742.50;1459.20;;;;;;4996729;28;20046;-78
2022/08/05 06:43:46;;;;;;;13.35;5.85;;;742.70;1433.60;;;;;;4993955;28;20034;-76
2022/08/05 06:46:12;;;;;;;12.13;5.95;;;742.80;1433.60;;;;;;4994060;28;20034;-78
2022/08/05 06:48:38;;;;;;;8.13;5.40;;;742.80;1382.40;;;;;;5006696;28;20044;-76
2022/08/05 06:51:04;;;;;;;9.55;5.43;;;742.90;1382.40;;;;;;5004909;28;20061;-75
2022/08/05 06:53:30;;;;;;;17.75;6.53;;;743.10;1356.80;;;;;;5003204;28;20034;-84
2022/08/05 06:56:02;;;;;;;17.95;5.72;;;743.10;1356.80;;;;;;5001562;28;20076;-79
2022/08/05 06:58:28;;;;;;;5.95;4.57;;;743.30;1331.20;;;;;;4996520;28;20514;-79
2022/08/05 07:00:54;;;;;;;7.55;5.25;;;768.00;1331.20;;;;;;5000831;28;20061;-78
2022/08/05 07:03:19;;;;;;;8.05;4.95;;;768.10;1305.60;;;;;;5013547;28;20037;-77
2022/08/05 07:05:45;;;;;;;7.15;4.60;;;768.20;1280.00;;;;;;5010929;28;20060;-76
2022/08/05 07:08:11;;;;;;;7.15;4.90;;;768.40;1305.60;;;;;;4976563;28;20125;-84
2022/08/05 07:10:38;;;;;;;13.93;4.72;;;768.50;1305.60;;;;;;4993613;28;20034;-74
2022/08/05 07:18:32;;;;;;;7.57;4.97;;;768.90;1280.00;;;;;;4993901;28;20037;-76
2022/08/05 07:20:58;;;;;;;6.20;4.45;;;793.70;1305.60;;;;;;4993486;28;20388;-77
2022/08/05 07:23:23;;;;;;;7.70;4.10;;;793.80;1254.40;;;;;;4993886;28;20034;-84
2022/08/05 07:25:49;;;;;;;5.82;3.65;;;794.00;1254.40;;;;;;4993629;28;20058;-75
2022/08/05 07:28:15;;;;;;;5.15;4.20;;;794.10;1228.80;;;;;;4993493;28;20050;-77
2022/08/05 07:30:40;;;;;;;6.60;4.43;;;794.20;1203.20;;;;;;4993456;28;20097;-84
2022/08/05 07:33:11;;;;;;;5.68;3.97;;;794.30;1228.80;;;;;;4993414;28;20022;-86
2022/08/05 07:35:40;;;;;;;10.30;4.13;;;794.40;1203.20;;;;;;5007393;28;20104;-76
2022/08/05 07:38:05;;;;;;;5.70;4.25;;;794.50;1203.20;;;;;;4993408;28;20022;-75
2022/08/05 07:40:31;;;;;;;6.55;4.28;;;819.20;1203.20;;;;;;4993335;28;20051;-75
2022/08/05 07:42:57;;;;;;;7.82;4.55;;;819.30;1203.20;;;;;;4993108;28;20038;-76
2022/08/05 07:45:23;;;;;;;6.78;4.07;;;819.40;1203.20;;;;;;4993419;28;20077;-84
2022/08/05 07:47:49;;;;;;;9.48;4.43;;;819.40;1203.20;;;;;;4993202;28;20596;-75
2022/08/05 07:50:14;;;;;;;6.15;4.22;;;819.60;1203.20;;;;;;4994908;28;20085;-76
2022/08/05 07:52:42;;;;;;;8.43;3.80;;;819.70;1177.60;;;;;;4996843;28;20030;-75
2022/08/05 07:55:09;;;;;;;5.85;4.40;;;819.70;1177.60;;;;;;4996981;28;20028;-76
2022/08/05 07:57:35;;;;;;;6.45;4.18;;;819.80;1177.60;;;;;;4996847;28;20030;-76
2022/08/05 08:00:02;;;;;;;13.82;4.15;;;819.90;1177.60;;;;;;4996770;28;20042;-77
2022/08/05 08:02:28;;;;;;;6.43;3.45;;;820.00;1152.00;;;;;;4996643;28;20088;-83
2022/08/05 08:04:54;;;;;;;11.10;4.30;;;820.10;1126.40;;;;;;4996591;28;20022;-76
2022/08/05 08:07:21;;;;;;;6.45;3.75;;;820.10;1152.00;;;;;;4996868;28;20019;-83
2022/08/05 08:09:48;;;;;;;6.63;3.78;;;844.90;1126.40;;;;;;4996703;28;20034;-76
2022/08/05 08:12:14;;;;;;;5.90;3.90;;;820.10;1100.80;;;;;;4996453;28;20026;-76
2022/08/05 08:14:41;;;;;;;6.82;4.70;;;820.10;1152.00;;;;;;4996473;28;20038;-75
2022/08/05 08:17:09;;;;;;;5.38;3.80;;;844.80;1152.00;;;;;;4996580;28;20057;-75
2022/08/05 08:19:39;;;;;;;6.97;4.22;;;844.90;1152.00;;;;;;4996485;28;20027;-75
2022/08/05 08:22:06;;;;;;;5.20;3.67;;;820.10;1100.80;;;;;;4996309;28;20081;-84
2022/08/05 08:24:32;;;;;;;5.40;4.30;;;844.80;1152.00;;;;;;4996554;28;20057;-74
2022/08/05 08:26:58;;;;;;;10.93;3.95;;;845.00;1152.00;;;;;;4996216;28;20019;-76
2022/08/05 08:29:24;;;;;;;7.53;3.88;;;845.00;1126.40;;;;;;4978919;28;20037;-75
2022/08/05 08:31:51;;;;;;;7.65;3.75;;;845.10;1126.40;;;;;;4996056;28;20061;-76
2022/08/05 08:34:25;;;;;;;5.22;4.22;;;845.30;1126.40;;;;;;4996093;28;20133;-76
2022/08/05 08:36:52;;;;;;;7.93;3.67;;;845.20;1100.80;;;;;;4996298;28;20023;-75
2022/08/05 08:39:18;;;;;;;6.10;4.43;;;845.20;1126.40;;;;;;4996065;28;20061;-75
2022/08/05 08:41:47;;;;;;;6.07;3.42;;;845.30;1126.40;;;;;;4996080;28;20070;-75
2022/08/05 08:44:14;;;;;;;6.07;3.92;;;845.40;1126.40;;;;;;4995577;28;20117;-83
2022/08/05 08:46:42;;;;;;;7.35;3.67;;;845.40;1126.40;;;;;;4995943;28;20022;-82
2022/08/05 08:49:08;;;;;;;9.00;3.70;;;845.40;1126.40;;;;;;4995896;28;20035;-75
2022/08/05 08:51:36;;;;;;;5.80;3.25;;;845.40;1100.80;;;;;;4996036;28;20027;-84
2022/08/05 08:54:03;;;;;;;6.85;3.83;;;845.60;1100.80;;;;;;4996112;28;20023;-81
2022/08/05 08:56:29;;;;;;;5.47;4.18;;;845.70;1100.80;;;;;;4995763;28;20567;-76
2022/08/05 08:58:58;;;;;;;4.80;3.47;;;870.40;1100.80;;;;;;4995929;28;20101;-83
2022/08/05 09:01:24;;;;;;;5.85;3.85;;;845.70;1100.80;;;;;;4994311;28;20034;-76
2022/08/05 09:03:53;;;;;;;8.55;3.53;;;870.40;1100.80;;;;;;4995794;28;20552;-79
2022/08/05 09:06:19;;;;;;;11.52;5.03;;;870.40;1075.20;;;;;;4995549;28;20460;-82
2022/08/05 09:08:45;;;;;;;12.77;3.72;;;870.40;1075.20;;;;;;4995635;28;20137;-74
2022/08/05 09:11:12;;;;;;;8.07;4.25;;;870.40;1049.60;;;;;;4995617;28;20101;-75
2022/08/05 09:13:38;;;;;;;7.63;3.88;;;870.40;1049.60;;;;;;4995522;28;20033;-82
2022/08/05 09:16:07;;;;;;;4.55;3.28;;;870.40;1049.60;;;;;;4995480;28;20105;-75
2022/08/05 09:18:35;;;;;;;8.05;3.95;;;870.50;1049.60;;;;;;4995451;28;20422;-75
2022/08/05 09:21:01;;;;;;;4.47;3.60;;;870.50;1049.60;;;;;;4995227;28;20065;-75
2022/08/05 09:23:27;;;;;;;7.43;3.50;;;870.50;1024.00;;;;;;4995256;28;20042;-76
2022/08/05 09:26:09;;;;;;;6.88;3.63;;;870.70;1049.60;;;;;;4995188;28;20527;-74
2022/08/05 09:28:37;;;;;;;6.93;3.80;;;870.70;1024.00;;;;;;4995311;28;20121;-83
2022/08/05 09:31:07;;;;;;;6.63;3.60;;;870.70;1024.00;;;;;;4994752;28;20392;-75
2022/08/05 09:33:48;;;;;;;4.28;3.22;;;870.80;1024.00;;;;;;4995119;28;20026;-75
2022/08/05 09:36:14;;;;;;;8.30;3.75;;;870.80;998.40;;;;;;4981591;28;20380;-78
2022/08/05 09:38:57;;;;;;;5.88;3.55;;;870.90;1024.00;;;;;;4995123;28;20019;-75
2022/08/05 09:41:24;;;;;;;6.82;3.10;;;871.10;998.40;;;;;;4997100;28;20042;-82
2022/08/05 09:43:51;;;;;;;5.07;2.88;;;871.30;998.40;;;;;;4997293;28;20476;-75
2022/08/05 09:46:31;;;;;;;8.10;3.60;;;896.10;998.40;;;;;;4994691;28;20101;-75
2022/08/05 09:49:03;;;;;;;5.88;3.35;;;896.30;972.80;;;;;;4994911;28;20054;-83
2022/08/05 09:51:40;;;;;;;5.45;3.30;;;896.30;972.80;;;;;;4994712;28;20034;-81
2022/08/05 09:54:07;;;;;;;6.20;3.20;;;871.30;972.80;;;;;;4994727;28;20404;-75
2022/08/05 09:56:36;;;;;;;10.02;3.85;;;871.20;998.40;;;;;;4994540;28;20147;-80
2022/08/05 09:59:11;;;;;;;9.65;3.22;;;870.90;998.40;;;;;;4994770;28;20473;-79
2022/08/05 10:01:41;;;;;;;9.18;3.60;;;870.80;1024.00;;;;;;4994348;28;20030;-74
2022/08/05 10:04:12;;;;;;;8.32;3.60;;;871.30;998.40;;;;;;4994560;28;20061;-83
2022/08/05 10:06:57;;;;;;;6.72;3.55;;;896.30;972.80;;;;;;4993147;28;20389;-75
2022/08/05 10:09:23;;;;;;;6.03;3.38;;;896.80;972.80;;;;;;4986591;28;20037;-75
2022/08/05 10:11:52;;;;;;;6.45;3.45;;;896.80;947.20;;;;;;4993491;28;20026;-76
2022/08/05 10:14:26;;;;;;;5.75;3.33;;;921.70;947.20;;;;;;4993632;28;20065;-76
2022/08/05 10:16:57;;;;;;;6.93;3.60;;;921.90;947.20;;;;;;4993320;28;20058;-75
2022/08/05 10:19:25;;;;;;;4.13;3.15;;;922.00;947.20;;;;;;4993573;28;20034;-80
2022/08/05 10:21:51;;;;;;;7.15;3.65;;;922.20;947.20;;;;;;4993654;28;20101;-80
2022/08/05 10:24:20;;;;;;;8.15;3.45;;;922.00;947.20;;;;;;4993900;28;20033;-81
2022/08/05 10:26:50;;;;;;;6.25;3.40;;;922.10;947.20;;;;;;4993496;28;20026;-84
2022/08/05 10:29:16;;;;;;;7.05;3.33;;;922.20;921.60;;;;;;4993882;28;20022;-76
2022/08/05 10:31:42;;;;;;;5.13;3.60;;;922.40;947.20;;;;;;4993658;28;20076;-75
2022/08/05 10:34:08;;;;;;;6.85;3.67;;;922.50;947.20;;;;;;4993368;28;20019;-76
2022/08/05 10:36:39;;;;;;;4.53;3.25;;;922.50;921.60;;;;;;4994328;28;20145;-85
2022/08/05 10:39:18;;;;;;;7.03;3.33;;;947.40;921.60;;;;;;4994066;28;20030;-85
2022/08/05 10:41:59;;;;;;;9.23;3.78;;;947.40;921.60;;;;;;4994032;28;20053;-79
2022/08/05 10:44:26;;;;;;;4.40;3.58;;;947.50;921.60;;;;;;4993829;28;20399;-78
2022/08/05 10:46:54;;;;;;;10.05;3.47;;;947.20;921.60;;;;;;4994163;28;20134;-78
2022/08/05 10:49:25;;;;;;;4.65;3.33;;;922.50;947.20;;;;;;4994163;28;20460;-81
2022/08/05 10:51:56;;;;;;;6.35;3.47;;;947.20;921.60;;;;;;4976686;28;20034;-81
2022/08/05 10:54:24;;;;;;;4.60;3.40;;;947.30;896.00;;;;;;4993828;28;20053;-88
2022/08/05 10:56:54;;;;;;;4.43;3.30;;;922.40;921.60;;;;;;4976268;28;20053;-80
2022/08/05 10:59:31;;;;;;;7.25;3.20;;;922.10;947.20;;;;;;4975393;28;20125;-80
2022/08/05 11:02:11;;;;;;;8.38;4.13;;;922.50;921.60;;;;;;4972506;28;20034;-89
2022/08/05 11:04:46;;;;;;;10.15;4.05;;;947.50;896.00;;;;;;4984694;28;20484;-82
2022/08/05 11:07:17;;;;;;;4.30;3.42;;;947.60;870.40;;;;;;4989269;28;20023;-78
2022/08/05 11:09:52;;;;;;;7.63;3.13;;;947.90;896.00;;;;;;4989578;28;20097;-83
2022/08/05 11:12:37;;;;;;;4.05;3.25;;;948.00;870.40;;;;;;4992148;28;20061;-82
2022/08/05 11:15:06;;;;;;;7.75;3.42;;;948.00;896.00;;;;;;4981034;28;20018;-78
2022/08/05 11:17:37;;;;;;;6.82;3.97;;;948.00;896.00;;;;;;4976411;28;20502;-76
2022/08/05 11:20:06;;;;;;;6.40;3.47;;;948.10;896.00;;;;;;4973968;28;20161;-76
2022/08/05 11:22:47;;;;;;;10.60;3.85;;;948.00;896.00;;;;;;4973961;28;20035;-76
2022/08/05 11:25:42;;;;;;;6.50;3.92;;;972.80;921.60;;;;;;4991551;28;20056;-76
2022/08/05 11:28:11;;;;;;;7.00;3.70;;;972.80;896.00;;;;;;4997438;28;20052;-76
2022/08/05 11:31:01;;;;;;;7.60;4.07;;;973.00;896.00;;;;;;4997312;28;20476;-76
2022/08/05 11:33:28;;;;;;;6.55;3.90;;;973.00;921.60;;;;;;4997149;28;20511;-77
2022/08/05 11:35:59;;;;;;;8.20;3.95;;;973.00;921.60;;;;;;4997284;28;20030;-75
2022/08/05 11:38:43;;;;;;;6.43;4.20;;;;;;;;;;4996891;28;20029;-77
2022/08/05 11:41:30;;;;;;;6.05;4.30;;;973.50;870.40;;;;;;4996864;28;20057;-76
2022/08/05 11:44:00;;;;;;;8.43;4.30;;;973.40;870.40;;;;;;4997101;28;20404;-77
2022/08/05 11:46:30;;;;;;;6.15;3.50;;;973.60;896.00;;;;;;4996917;28;20023;-82
2022/08/05 11:48:57;;;;;;;5.07;3.60;;;973.40;870.40;;;;;;4997052;28;20022;-83
2022/08/05 11:51:24;;;;;;;6.22;4.47;;;973.60;870.40;;;;;;4986959;28;20027;-82
2022/08/05 11:53:50;;;;;;;7.57;4.20;;;973.40;870.40;;;;;;4996404;28;20384;-78
2022/08/05 11:56:16;;;;;;;6.45;4.00;;;973.60;870.40;;;;;;4996762;28;20468;-80
2022/08/05 11:58:44;;;;;;;6.53;4.40;;;973.70;844.80;;;;;;4989516;28;20054;-76
2022/08/05 12:01:18;;;;;;;10.18;5.00;;;973.70;844.80;;;;;;4977280;28;20019;-77
2022/08/05 12:03:53;;;;;;;18.60;5.20;;;973.70;870.40;;;;;;4976862;28;20035;-82
2022/08/05 12:06:24;;;;;;;8.65;4.93;;;973.70;870.40;;;;;;4978435;28;20030;-77
2022/08/05 12:08:56;;;;;;;5.78;5.18;;;998.40;896.00;;;;;;4996615;28;20081;-82
2022/08/05 12:11:29;;;;;;;5.57;4.90;;;998.40;870.40;;;;;;4996546;28;20022;-79
2022/08/05 12:14:06;;;;;;;11.30;4.72;;;998.40;921.60;;;;;;4996336;28;20084;-82
2022/08/05 12:16:34;;;;;;;6.30;4.65;;;973.70;870.40;;;;;;4996462;28;20041;-81
2022/08/05 12:19:00;;;;;;;5.55;3.55;;;973.70;844.80;;;;;;4996189;28;20106;-77
2022/08/05 12:21:30;;;;;;;5.75;3.75;;;973.70;870.40;;;;;;4996251;28;20022;-76
2022/08/05 12:24:00;;;;;;;9.95;4.28;;;973.70;844.80;;;;;;4996023;28;20026;-77
2022/08/05 12:26:46;;;;;;;5.82;3.72;;;998.40;896.00;;;;;;4996285;28;20092;-78
2022/08/05 12:29:21;;;;;;;5.22;3.80;;;998.50;870.40;;;;;;4996310;28;20539;-81
2022/08/05 12:31:50;;;;;;;5.70;3.45;;;973.70;844.80;;;;;;4995925;28;20031;-78